Time;durP1;ratioP1;P1;durP2;ratioP2;P2;SDS_P1;SDS_P2;PMS_P1;PMS_P2;Temp;Humidity;BMP_temperature;BMP_pressure;BME280_temperature;BME280_humidity;BME280_pressure;Samples;Min_cycle;Max_cycle;Signal;HPM_P1;HPM_P2
2022/03/04 08:43:31;;;;;;;25.35;16.95;;;10.80;52.50;;;;;;5311779;22;20051;-88
2022/03/04 08:45:57;;;;;;;25.77;18.63;;;10.90;44.80;;;;;;5033626;28;20036;-89
2022/03/04 08:48:23;;;;;;;25.38;17.73;;;11.00;47.10;;;;;;5053062;28;20428;-89
2022/03/04 08:50:49;;;;;;;26.23;19.20;;;11.20;45.70;;;;;;5046290;28;20044;-89
2022/03/04 08:53:14;;;;;;;23.05;17.50;;;11.20;45.40;;;;;;5048294;28;20047;-89
2022/03/04 08:55:44;;;;;;;24.52;17.27;;;11.30;45.40;;;;;;5022374;28;20022;-89
2022/03/04 08:58:10;;;;;;;23.75;17.15;;;11.40;44.50;;;;;;5046135;28;20026;-89
2022/03/04 09:00:35;;;;;;;23.25;15.32;;;11.40;45.40;;;;;;5040235;28;20029;-89
2022/03/04 09:03:01;;;;;;;22.13;16.90;;;11.50;44.90;;;;;;5027859;28;20131;-89
2022/03/04 09:05:30;;;;;;;19.33;15.05;;;11.60;42.50;;;;;;5037425;28;20519;-89
2022/03/04 09:07:56;;;;;;;20.35;14.80;;;11.70;42.90;;;;;;5050925;28;20029;-87
2022/03/04 09:10:22;;;;;;;18.05;14.10;;;11.90;42.70;;;;;;5048279;28;20040;-87
2022/03/04 09:12:48;;;;;;;22.02;15.55;;;12.10;41.50;;;;;;5330832;23;20066;-85
2022/03/04 09:15:13;;;;;;;21.95;15.40;;;12.20;41.50;;;;;;5080048;28;20040;-84
2022/03/04 09:17:40;;;;;;;26.35;17.50;;;12.30;40.60;;;;;;5076571;28;20032;-84
2022/03/04 09:20:08;;;;;;;23.80;15.55;;;12.40;39.90;;;;;;5068262;28;20123;-84
2022/03/04 09:22:34;;;;;;;23.33;16.23;;;12.40;40.30;;;;;;5057348;28;20028;-85
2022/03/04 09:24:59;;;;;;;29.13;17.27;;;12.60;39.90;;;;;;5081096;28;20070;-85
2022/03/04 09:27:25;;;;;;;19.63;15.45;;;12.70;40.60;;;;;;5080141;28;20115;-85
2022/03/04 09:29:50;;;;;;;23.77;16.70;;;12.70;39.50;;;;;;5066650;28;20040;-85
2022/03/04 09:32:16;;;;;;;19.25;14.70;;;12.70;39.60;;;;;;5077478;28;21386;-85
2022/03/04 09:34:42;;;;;;;23.42;15.55;;;12.90;40.00;;;;;;5070595;28;20041;-84
2022/03/04 09:37:08;;;;;;;22.80;15.60;;;13.10;39.40;;;;;;5069870;28;20075;-85
2022/03/04 09:39:33;;;;;;;23.65;15.27;;;13.20;38.90;;;;;;5071716;28;20114;-85
2022/03/04 09:41:59;;;;;;;20.33;14.43;;;13.30;38.70;;;;;;5072243;28;20041;-84
2022/03/04 09:44:25;;;;;;;21.90;16.35;;;13.40;39.30;;;;;;5069160;28;20047;-85
2022/03/04 09:46:53;;;;;;;21.45;16.40;;;13.50;39.10;;;;;;5071312;28;20045;-85
2022/03/04 09:49:18;;;;;;;19.70;14.75;;;13.60;39.00;;;;;;5070896;28;20040;-83
2022/03/04 09:51:44;;;;;;;25.83;16.55;;;13.80;38.50;;;;;;5071869;28;20151;-83
2022/03/04 09:54:10;;;;;;;21.45;16.58;;;13.90;38.00;;;;;;5068297;28;20033;-84
2022/03/04 09:56:36;;;;;;;23.00;17.13;;;13.80;36.90;;;;;;5066119;28;20029;-84
2022/03/04 09:59:03;;;;;;;24.73;16.15;;;13.90;38.00;;;;;;5073971;28;20039;-86
2022/03/04 10:01:28;;;;;;;20.85;15.02;;;14.00;39.00;;;;;;5072024;28;20037;-86
2022/03/04 10:03:55;;;;;;;20.63;16.17;;;14.20;39.00;;;;;;5072242;28;20032;-86
2022/03/04 10:06:22;;;;;;;20.20;15.70;;;14.30;38.20;;;;;;5072339;28;20284;-87
2022/03/04 10:08:52;;;;;;;20.05;16.05;;;14.30;38.10;;;;;;5071269;28;20033;-87
2022/03/04 10:11:31;;;;;;;23.80;14.57;;;14.40;38.20;;;;;;5047319;28;20082;-85
2022/03/04 10:13:59;;;;;;;20.23;14.98;;;14.70;38.10;;;;;;5071194;28;20036;-85
2022/03/04 10:16:28;;;;;;;17.45;14.20;;;14.70;36.30;;;;;;5079896;28;20034;-84
2022/03/04 10:19:16;;;;;;;19.23;15.18;;;14.80;36.90;;;;;;5074200;28;20037;-85
2022/03/04 10:21:55;;;;;;;18.65;14.52;;;14.90;35.00;;;;;;5073727;28;20036;-85
2022/03/04 10:24:28;;;;;;;21.30;15.37;;;15.00;35.30;;;;;;5074642;28;20495;-85
2022/03/04 10:27:02;;;;;;;18.27;14.35;;;15.10;34.50;;;;;;5087718;28;20105;-84
2022/03/04 10:29:30;;;;;;;22.00;15.43;;;15.20;35.10;;;;;;5078026;28;20463;-84
2022/03/04 10:32:13;;;;;;;20.27;14.88;;;15.40;34.80;;;;;;5064731;28;20037;-84
2022/03/04 10:34:48;;;;;;;20.23;14.77;;;15.60;34.80;;;;;;5068794;28;20415;-85
2022/03/04 10:37:17;;;;;;;21.45;15.18;;;15.70;34.00;;;;;;5082834;28;20059;-84
2022/03/04 10:40:03;;;;;;;21.52;15.60;;;15.80;34.50;;;;;;5058974;28;20388;-84
2022/03/04 10:42:51;;;;;;;19.48;13.88;;;15.90;34.40;;;;;;5079661;28;20032;-84
2022/03/04 10:45:25;;;;;;;23.23;16.05;;;16.00;34.40;;;;;;5079113;28;20128;-84
2022/03/04 10:47:54;;;;;;;20.98;14.82;;;16.00;33.10;;;;;;5079398;28;20037;-84
2022/03/04 10:50:32;;;;;;;22.20;15.77;;;16.10;34.80;;;;;;5072941;28;20049;-86
2022/03/04 10:53:08;;;;;;;16.75;13.00;;;16.30;34.20;;;;;;5074370;28;20021;-85
2022/03/04 10:55:35;;;;;;;21.05;14.93;;;16.50;34.70;;;;;;5082678;28;20067;-85
2022/03/04 10:58:05;;;;;;;17.40;14.43;;;16.60;33.10;;;;;;5080991;28;20071;-85
2022/03/04 11:00:34;;;;;;;20.97;14.87;;;16.50;32.70;;;;;;5071030;28;20460;-85
2022/03/04 11:03:00;;;;;;;19.63;14.02;;;16.50;32.90;;;;;;5072697;28;20448;-83
2022/03/04 11:05:33;;;;;;;21.50;13.43;;;16.60;32.80;;;;;;5078326;28;20040;-83
2022/03/04 11:07:58;;;;;;;16.90;12.55;;;16.70;33.00;;;;;;5074737;28;20033;-86
2022/03/04 11:10:25;;;;;;;15.63;12.48;;;16.50;33.70;;;;;;5086202;28;20041;-87
2022/03/04 11:12:53;;;;;;;17.63;12.65;;;16.70;33.50;;;;;;5075368;28;20042;-87
2022/03/04 11:15:22;;;;;;;15.25;11.43;;;16.80;33.00;;;;;;5067559;28;20090;-87
2022/03/04 11:17:49;;;;;;;19.40;12.93;;;16.90;32.30;;;;;;5067369;28;20028;-86
2022/03/04 11:20:16;;;;;;;18.88;11.95;;;17.20;32.10;;;;;;5074017;28;20029;-87
2022/03/04 11:22:43;;;;;;;17.38;12.07;;;17.30;31.70;;;;;;5074333;28;20035;-87
2022/03/04 11:25:12;;;;;;;16.95;11.48;;;17.20;31.60;;;;;;5075039;28;20033;-87
2022/03/04 11:27:46;;;;;;;18.57;12.47;;;17.30;33.50;;;;;;5064353;28;20090;-86
2022/03/04 11:30:34;;;;;;;19.42;11.43;;;17.50;31.00;;;;;;5059849;28;20478;-86
2022/03/04 11:33:26;;;;;;;21.58;10.63;;;17.50;30.80;;;;;;5085898;28;20040;-86
2022/03/04 11:36:14;;;;;;;16.88;10.32;;;17.50;30.00;;;;;;5071935;28;20377;-86
2022/03/04 11:38:46;;;;;;;15.43;10.48;;;17.70;27.70;;;;;;5069310;28;20064;-86
2022/03/04 11:41:34;;;;;;;19.85;11.05;;;17.80;28.00;;;;;;5070224;28;20044;-86
2022/03/04 11:44:21;;;;;;;14.50;10.85;;;17.80;27.90;;;;;;5072660;28;20436;-87
2022/03/04 11:46:49;;;;;;;12.93;10.50;;;18.00;27.60;;;;;;5044919;28;20080;-87
2022/03/04 11:49:38;;;;;;;17.67;10.73;;;18.20;26.80;;;;;;5068734;28;20062;-87
2022/03/04 11:52:10;;;;;;;13.57;10.45;;;18.40;26.50;;;;;;5047062;28;20044;-87
2022/03/04 11:54:53;;;;;;;14.77;10.63;;;18.60;26.70;;;;;;5072371;28;20058;-85
2022/03/04 11:57:21;;;;;;;21.83;11.18;;;18.80;27.20;;;;;;5071515;28;20139;-84
2022/03/04 11:59:50;;;;;;;14.85;10.55;;;19.10;24.80;;;;;;5071626;28;20119;-85
2022/03/04 12:02:20;;;;;;;14.90;10.52;;;19.10;24.80;;;;;;5070034;28;20377;-85
2022/03/04 12:04:45;;;;;;;14.50;11.13;;;19.40;24.00;;;;;;5083874;28;20483;-85
2022/03/04 12:07:11;;;;;;;14.43;11.05;;;19.80;25.20;;;;;;5063190;28;20072;-85
2022/03/04 12:09:38;;;;;;;14.45;10.93;;;20.00;24.70;;;;;;5072826;28;20082;-85
2022/03/04 12:12:11;;;;;;;16.13;10.75;;;20.10;23.70;;;;;;5072086;28;20111;-85
2022/03/04 12:15:01;;;;;;;16.33;10.93;;;19.80;23.80;;;;;;5072306;28;20049;-85
2022/03/04 12:18:05;;;;;;;15.03;10.90;;;19.70;24.20;;;;;;5024734;28;20130;-85
2022/03/04 12:20:39;;;;;;;20.83;11.10;;;19.80;24.10;;;;;;5073031;28;20115;-85
2022/03/04 12:23:16;;;;;;;13.70;10.13;;;20.10;23.60;;;;;;5074676;28;20040;-85
2022/03/04 12:25:57;;;;;;;13.23;10.80;;;20.10;23.80;;;;;;5080694;28;20114;-84
2022/03/04 12:28:26;;;;;;;16.83;11.55;;;20.30;25.40;;;;;;5077831;28;20052;-83
2022/03/04 12:31:01;;;;;;;13.73;10.32;;;20.20;24.60;;;;;;5063659;28;20123;-83
2022/03/04 12:33:37;;;;;;;16.27;11.63;;;20.10;24.30;;;;;;5062445;28;20032;-83
2022/03/04 12:36:08;;;;;;;17.02;12.50;;;20.20;24.40;;;;;;5043950;28;20424;-83
2022/03/04 12:38:46;;;;;;;17.15;11.10;;;20.00;24.30;;;;;;5074195;28;20047;-82
2022/03/04 12:41:16;;;;;;;14.32;11.68;;;19.70;24.70;;;;;;5060657;28;20043;-83
2022/03/04 12:43:56;;;;;;;15.75;10.57;;;19.60;24.70;;;;;;5078678;28;20040;-83
2022/03/04 12:46:23;;;;;;;;;;;19.60;24.40;;;;;;5076513;28;20036;-82
2022/03/04 12:48:51;;;;;;;15.70;10.35;;;19.50;23.20;;;;;;5076021;28;20380;-82
2022/03/04 12:51:41;;;;;;;20.10;11.05;;;19.50;24.40;;;;;;5079148;28;20115;-82
2022/03/04 12:54:19;;;;;;;14.85;10.80;;;19.50;23.60;;;;;;5075792;28;20456;-86
2022/03/04 12:57:06;;;;;;;15.02;10.63;;;19.60;24.40;;;;;;5082267;28;20081;-84
2022/03/04 12:59:47;;;;;;;15.07;10.57;;;19.70;24.00;;;;;;5074849;28;20039;-85
2022/03/04 13:02:13;;;;;;;14.52;10.90;;;19.80;23.50;;;;;;5071602;28;20048;-85
2022/03/04 13:04:39;;;;;;;16.88;11.27;;;19.60;23.90;;;;;;5078784;28;20024;-85
2022/03/04 13:07:06;;;;;;;18.73;11.45;;;19.70;24.20;;;;;;5079369;28;20259;-85
2022/03/04 13:09:31;;;;;;;14.90;11.10;;;19.90;24.80;;;;;;5078912;28;20032;-84
2022/03/04 13:12:03;;;;;;;16.60;11.88;;;19.90;24.70;;;;;;5079912;28;20059;-85
2022/03/04 13:14:32;;;;;;;15.57;12.15;;;19.80;24.60;;;;;;5081333;28;20115;-85
2022/03/04 13:16:58;;;;;;;19.58;12.55;;;19.70;24.90;;;;;;5080275;28;20426;-84
2022/03/04 13:19:31;;;;;;;15.05;11.80;;;19.60;24.20;;;;;;5079320;28;20505;-85
2022/03/04 13:22:07;;;;;;;15.93;12.73;;;19.20;24.70;;;;;;5080625;28;20037;-85
2022/03/04 13:24:36;;;;;;;20.00;12.50;;;19.00;25.10;;;;;;5059888;28;20488;-85
2022/03/04 13:27:09;;;;;;;13.98;11.65;;;18.60;24.50;;;;;;5076175;28;20040;-85
2022/03/04 13:29:42;;;;;;;15.63;11.88;;;18.20;24.90;;;;;;5077174;28;20036;-85
2022/03/04 13:32:18;;;;;;;13.95;11.50;;;18.00;25.60;;;;;;5078968;28;20139;-85
2022/03/04 13:34:47;;;;;;;15.02;11.70;;;17.60;25.40;;;;;;5081523;28;20020;-85
2022/03/04 13:37:17;;;;;;;16.48;11.40;;;17.30;25.90;;;;;;5062159;28;20032;-85
2022/03/04 13:39:57;;;;;;;20.67;11.45;;;17.00;25.80;;;;;;5082636;28;20384;-84
2022/03/04 13:42:25;;;;;;;15.00;11.80;;;16.80;26.40;;;;;;5088212;28;20055;-85
2022/03/04 13:45:04;;;;;;;20.85;12.25;;;16.70;26.60;;;;;;5055449;28;20548;-85
2022/03/04 13:47:36;;;;;;;14.57;11.02;;;16.60;26.60;;;;;;5082726;28;20062;-84
2022/03/04 13:50:04;;;;;;;16.58;11.23;;;16.40;26.00;;;;;;5079060;28;20120;-84
2022/03/04 13:52:59;;;;;;;14.30;10.75;;;16.20;26.60;;;;;;5079026;28;20469;-84
2022/03/04 13:55:51;;;;;;;18.30;11.10;;;16.20;26.20;;;;;;5080758;28;20033;-84
2022/03/04 13:58:16;;;;;;;17.13;10.98;;;16.00;26.40;;;;;;5081606;28;20102;-84
2022/03/04 14:00:43;;;;;;;14.02;11.43;;;15.70;26.40;;;;;;5083833;28;20476;-84
2022/03/04 14:03:14;;;;;;;14.75;11.52;;;15.60;27.10;;;;;;5084845;28;20029;-84
2022/03/04 14:05:45;;;;;;;15.02;11.07;;;15.60;27.40;;;;;;5083876;28;20037;-84
2022/03/04 14:08:16;;;;;;;18.95;11.68;;;15.50;28.10;;;;;;5082097;28;20108;-84
2022/03/04 14:10:47;;;;;;;16.05;11.70;;;15.40;27.10;;;;;;5083670;28;20048;-84
2022/03/04 14:13:15;;;;;;;15.32;11.15;;;15.30;28.90;;;;;;5080298;28;20040;-84
2022/03/04 14:15:43;;;;;;;13.43;11.27;;;15.30;28.80;;;;;;5083178;28;20036;-84
2022/03/04 14:18:14;;;;;;;15.18;11.40;;;15.30;28.60;;;;;;5084876;28;20058;-84
2022/03/04 14:20:42;;;;;;;20.73;11.95;;;15.30;28.50;;;;;;5084066;28;20484;-84
2022/03/04 14:23:09;;;;;;;17.95;12.75;;;15.40;29.10;;;;;;5081725;28;20487;-84
2022/03/04 14:25:35;;;;;;;13.98;11.93;;;15.30;28.60;;;;;;5085367;28;20483;-84
2022/03/04 14:28:02;;;;;;;20.83;12.35;;;15.20;28.10;;;;;;5082078;28;20067;-85
2022/03/04 14:30:31;;;;;;;15.57;12.57;;;15.20;28.90;;;;;;5086833;28;20396;-85
2022/03/04 14:32:58;;;;;;;18.13;12.43;;;15.20;27.60;;;;;;5057184;28;20029;-87
2022/03/04 14:35:27;;;;;;;38.28;28.38;;;15.10;28.30;;;;;;5074139;28;20120;-85
2022/03/04 14:37:53;;;;;;;17.40;12.57;;;15.10;27.60;;;;;;5084632;28;20029;-85
2022/03/04 14:40:20;;;;;;;15.00;12.32;;;15.00;28.40;;;;;;5083015;28;20107;-86
2022/03/04 14:42:52;;;;;;;19.30;12.63;;;15.00;27.60;;;;;;5084532;28;20365;-86
2022/03/04 14:45:18;;;;;;;17.50;11.75;;;15.00;28.50;;;;;;5082633;28;20161;-86
2022/03/04 14:47:45;;;;;;;15.63;12.05;;;15.00;28.70;;;;;;5084606;28;20388;-84
2022/03/04 14:50:12;;;;;;;18.90;12.00;;;15.00;28.70;;;;;;5075353;28;20459;-85
2022/03/04 14:52:40;;;;;;;18.45;12.15;;;15.00;28.30;;;;;;5074671;28;20039;-83
2022/03/04 14:55:07;;;;;;;16.40;11.98;;;14.80;28.50;;;;;;5073719;28;20037;-84
2022/03/04 14:57:33;;;;;;;16.40;12.63;;;14.80;28.40;;;;;;5069655;28;20412;-85
2022/03/04 14:59:59;;;;;;;30.73;12.07;;;14.80;29.70;;;;;;5069377;28;20040;-90
2022/03/04 15:02:25;;;;;;;15.93;11.63;;;14.80;28.90;;;;;;5052277;28;20503;-84
2022/03/04 15:04:51;;;;;;;14.70;11.15;;;14.70;29.40;;;;;;5074245;28;20123;-83
2022/03/04 15:07:17;;;;;;;21.08;13.50;;;14.70;29.20;;;;;;5072925;28;20035;-84
2022/03/04 15:09:43;;;;;;;21.08;12.80;;;14.60;29.90;;;;;;5074030;28;20392;-83
2022/03/04 15:12:10;;;;;;;16.00;11.80;;;14.50;30.00;;;;;;5056315;28;20059;-87
2022/03/04 15:14:37;;;;;;;16.42;11.88;;;14.40;30.50;;;;;;5075263;28;20050;-88
2022/03/04 15:17:04;;;;;;;17.55;11.63;;;14.30;29.60;;;;;;5074928;28;20082;-87
2022/03/04 15:19:41;;;;;;;17.83;12.63;;;14.40;29.90;;;;;;5059368;28;20495;-86
2022/03/04 15:22:12;;;;;;;15.02;10.68;;;14.30;29.80;;;;;;5077257;28;20116;-87
2022/03/04 15:24:38;;;;;;;;;;;14.20;31.40;;;;;;5074752;28;20028;-87
2022/03/04 15:27:06;;;;;;;16.00;11.75;;;14.20;30.10;;;;;;5074320;28;19912;-86
2022/03/04 15:29:33;;;;;;;20.00;11.32;;;14.10;31.20;;;;;;5069018;28;20032;-86
2022/03/04 15:32:04;;;;;;;14.65;10.60;;;14.10;31.70;;;;;;5090668;28;20052;-86
2022/03/04 15:34:32;;;;;;;15.95;10.02;;;14.00;33.70;;;;;;5079801;28;20031;-86
2022/03/04 15:36:57;;;;;;;15.32;10.50;;;14.00;33.10;;;;;;5072817;28;20036;-86
2022/03/04 15:39:23;;;;;;;17.35;11.43;;;14.00;33.90;;;;;;5069555;28;20419;-86
2022/03/04 15:41:49;;;;;;;18.70;11.13;;;13.90;33.90;;;;;;5073805;28;20093;-86
2022/03/04 15:44:17;;;;;;;17.92;11.23;;;14.00;35.50;;;;;;5077173;28;20590;-86
2022/03/04 15:46:43;;;;;;;19.25;12.20;;;14.00;38.50;;;;;;5073612;28;20041;-85
2022/03/04 15:49:09;;;;;;;15.90;11.50;;;13.90;42.50;;;;;;5073173;28;20399;-86
2022/03/04 15:51:35;;;;;;;18.17;10.52;;;13.80;43.30;;;;;;5077266;28;20040;-87
2022/03/04 15:54:01;;;;;;;20.27;12.73;;;13.80;43.60;;;;;;5073596;28;20035;-88
2022/03/04 15:56:27;;;;;;;19.02;11.88;;;13.80;44.00;;;;;;5072582;28;20039;-88
2022/03/04 15:58:53;;;;;;;20.25;11.93;;;13.70;43.50;;;;;;5054627;28;20508;-88
2022/03/04 16:01:18;;;;;;;20.17;12.23;;;13.70;42.60;;;;;;5072657;28;20059;-87
2022/03/04 16:03:44;;;;;;;17.25;11.90;;;13.70;41.00;;;;;;5073720;28;20036;-87
2022/03/04 16:06:10;;;;;;;17.88;12.30;;;13.60;39.90;;;;;;5056134;28;20036;-87
2022/03/04 16:08:35;;;;;;;18.25;11.95;;;13.60;40.20;;;;;;5072832;28;20032;-83
2022/03/04 16:11:01;;;;;;;16.00;10.90;;;13.60;41.70;;;;;;5072531;28;20071;-84
2022/03/04 16:13:26;;;;;;;20.20;11.65;;;13.60;41.70;;;;;;5054572;28;20384;-83
2022/03/04 16:15:52;;;;;;;17.73;12.73;;;13.60;39.80;;;;;;5072195;28;20098;-83
2022/03/04 16:18:18;;;;;;;20.65;13.95;;;13.50;39.60;;;;;;5077914;28;20112;-83
2022/03/04 16:20:43;;;;;;;24.15;14.02;;;13.50;41.50;;;;;;5077089;28;20028;-83
2022/03/04 16:23:09;;;;;;;23.33;15.15;;;13.40;43.60;;;;;;5072596;28;20443;-83
2022/03/04 16:25:35;;;;;;;23.33;13.68;;;13.20;44.30;;;;;;5054467;28;20045;-84
2022/03/04 16:28:02;;;;;;;24.60;14.43;;;13.10;44.80;;;;;;5072476;28;20502;-84
2022/03/04 16:30:28;;;;;;;25.73;14.95;;;13.10;45.50;;;;;;5072742;28;20043;-84
2022/03/04 16:32:54;;;;;;;27.00;14.77;;;13.00;46.50;;;;;;5054576;28;20029;-84
2022/03/04 16:35:20;;;;;;;20.45;12.48;;;12.90;46.50;;;;;;5072937;28;20043;-83
2022/03/04 16:37:46;;;;;;;20.25;13.38;;;12.90;45.90;;;;;;5072703;28;20029;-83
2022/03/04 16:40:12;;;;;;;22.13;14.18;;;13.00;46.70;;;;;;5071574;28;20403;-83
2022/03/04 16:42:37;;;;;;;23.70;13.35;;;13.00;44.30;;;;;;5054437;28;20041;-83
2022/03/04 16:45:04;;;;;;;22.55;14.32;;;12.90;45.20;;;;;;5054365;28;20044;-84
2022/03/04 16:47:30;;;;;;;20.08;13.82;;;12.80;45.10;;;;;;5055841;28;20041;-86
2022/03/04 16:49:57;;;;;;;18.83;13.32;;;12.70;43.00;;;;;;5071769;28;20074;-85
2022/03/04 16:52:23;;;;;;;26.13;14.43;;;12.70;43.60;;;;;;5071204;28;20037;-84
2022/03/04 16:54:50;;;;;;;24.55;12.80;;;12.80;44.50;;;;;;5065094;28;20032;-84
2022/03/04 16:57:16;;;;;;;18.83;12.05;;;12.60;47.80;;;;;;5032264;28;20046;-84
2022/03/04 16:59:42;;;;;;;22.08;12.20;;;12.50;48.50;;;;;;5062614;28;20036;-84
2022/03/04 17:02:11;;;;;;;21.67;11.60;;;12.60;48.00;;;;;;5067512;28;20053;-84
2022/03/04 17:04:38;;;;;;;18.25;12.77;;;12.60;48.40;;;;;;5066502;28;20040;-84
2022/03/04 17:07:07;;;;;;;19.77;11.57;;;12.60;49.10;;;;;;5069173;28;20488;-84
2022/03/04 17:09:33;;;;;;;22.58;12.15;;;12.60;48.60;;;;;;5069607;28;20554;-84
2022/03/04 17:11:59;;;;;;;20.30;12.25;;;12.60;49.40;;;;;;5068724;28;20400;-84
2022/03/04 17:14:25;;;;;;;23.17;12.10;;;12.50;49.40;;;;;;5058116;28;20043;-84
2022/03/04 17:16:52;;;;;;;19.58;12.32;;;12.40;50.00;;;;;;5068667;28;20035;-84
2022/03/04 17:19:18;;;;;;;25.30;13.00;;;12.40;49.70;;;;;;5066860;28;20036;-84
2022/03/04 17:21:44;;;;;;;27.83;12.43;;;12.40;48.90;;;;;;5068665;28;20068;-84
2022/03/04 17:24:11;;;;;;;19.98;12.32;;;12.40;50.40;;;;;;5069615;28;20459;-84
2022/03/04 17:26:38;;;;;;;23.13;12.95;;;12.50;51.40;;;;;;5069598;28;20036;-84
2022/03/04 17:29:04;;;;;;;21.77;12.52;;;12.40;51.30;;;;;;5069770;28;20047;-84
2022/03/04 17:31:30;;;;;;;19.77;11.88;;;12.40;50.70;;;;;;5071658;28;20048;-84
2022/03/04 17:33:59;;;;;;;19.23;11.55;;;12.40;51.40;;;;;;5071922;28;20400;-84
2022/03/04 17:36:27;;;;;;;23.85;12.20;;;12.40;51.00;;;;;;5074498;28;20102;-84
2022/03/04 17:38:53;;;;;;;25.55;13.43;;;12.30;51.00;;;;;;5073255;28;20060;-85
2022/03/04 17:41:20;;;;;;;21.80;13.90;;;12.30;49.60;;;;;;5072393;28;20527;-85
2022/03/04 17:43:46;;;;;;;23.90;13.40;;;12.30;48.80;;;;;;5071029;28;20120;-84
2022/03/04 17:46:13;;;;;;;30.02;13.43;;;12.30;49.20;;;;;;5074233;28;20115;-84
2022/03/04 17:48:38;;;;;;;28.55;13.98;;;12.40;49.20;;;;;;5058142;28;20036;-84
2022/03/04 17:51:04;;;;;;;33.03;16.10;;;12.40;49.90;;;;;;5075623;28;20047;-84
2022/03/04 17:53:30;;;;;;;29.40;14.20;;;12.40;48.80;;;;;;5076353;28;20385;-84
2022/03/04 17:55:56;;;;;;;25.23;15.05;;;12.40;48.70;;;;;;5076074;28;20028;-84
2022/03/04 17:58:22;;;;;;;28.48;15.05;;;12.40;49.30;;;;;;5058084;28;20029;-84
2022/03/04 18:00:48;;;;;;;29.88;13.93;;;12.20;49.80;;;;;;5075940;28;20102;-84
2022/03/04 18:03:15;;;;;;;23.80;13.65;;;12.30;48.90;;;;;;5076205;28;20067;-84
2022/03/04 18:05:41;;;;;;;25.50;15.10;;;12.30;50.80;;;;;;5075486;28;20094;-84
2022/03/04 18:08:08;;;;;;;30.88;16.95;;;12.30;51.10;;;;;;5075861;28;20046;-84
2022/03/04 18:10:34;;;;;;;27.90;15.40;;;12.20;51.20;;;;;;5075633;28;20037;-84
2022/03/04 18:13:00;;;;;;;33.33;15.07;;;12.20;50.90;;;;;;5075755;28;20513;-84
2022/03/04 18:15:26;;;;;;;24.52;15.20;;;12.10;51.70;;;;;;5075368;28;20032;-84
2022/03/04 18:17:52;;;;;;;33.13;14.68;;;12.10;51.40;;;;;;5075262;28;20039;-84
2022/03/04 18:20:17;;;;;;;29.10;15.43;;;12.10;52.30;;;;;;5075322;28;20025;-84
2022/03/04 18:22:43;;;;;;;30.20;15.93;;;12.10;52.10;;;;;;5075627;28;20032;-84
2022/03/04 18:25:09;;;;;;;28.08;15.68;;;12.00;51.10;;;;;;5075523;28;20042;-84
2022/03/04 18:27:37;;;;;;;27.25;15.98;;;12.10;51.20;;;;;;5075326;28;20510;-84
2022/03/04 18:30:04;;;;;;;25.90;15.80;;;12.10;51.00;;;;;;5075079;28;20400;-84
2022/03/04 18:32:30;;;;;;;24.15;14.75;;;12.10;51.90;;;;;;5075181;28;20025;-84
2022/03/04 18:34:56;;;;;;;24.88;14.30;;;12.20;50.70;;;;;;5075423;28;20031;-84
2022/03/04 18:37:22;;;;;;;21.15;13.18;;;12.10;51.80;;;;;;5056783;28;20387;-84
2022/03/04 18:42:32;;;;;;;21.88;12.80;;;12.20;53.00;;;;;;5074890;28;20090;-84
2022/03/04 18:47:42;;;;;;;19.55;12.30;;;12.10;52.90;;;;;;5073022;28;20039;-84
2022/03/04 18:50:09;;;;;;;20.33;11.93;;;12.00;52.60;;;;;;5073591;28;20341;-85
2022/03/04 18:52:35;;;;;;;18.70;12.48;;;12.00;52.50;;;;;;5073113;28;20047;-85
2022/03/04 18:55:01;;;;;;;22.40;12.35;;;12.10;53.00;;;;;;5066836;28;20032;-85
2022/03/04 18:57:27;;;;;;;20.88;11.75;;;12.00;52.50;;;;;;5072050;28;20528;-85
2022/03/04 18:59:53;;;;;;;17.33;11.25;;;12.00;52.90;;;;;;5075220;28;20036;-85
2022/03/04 19:02:19;;;;;;;19.85;12.07;;;12.00;52.90;;;;;;5074522;28;20037;-92
2022/03/04 19:04:45;;;;;;;18.20;10.88;;;12.00;53.50;;;;;;5048159;28;20075;-86
2022/03/04 19:07:11;;;;;;;15.52;11.65;;;12.00;53.30;;;;;;5070548;28;20534;-85
2022/03/04 19:09:38;;;;;;;16.60;10.82;;;12.00;53.30;;;;;;5062800;28;20488;-85
2022/03/04 19:12:04;;;;;;;15.95;11.40;;;12.00;53.80;;;;;;5054626;28;20040;-85
2022/03/04 19:14:30;;;;;;;16.27;11.23;;;12.00;54.20;;;;;;5071805;28;20049;-85
2022/03/04 19:16:56;;;;;;;16.27;10.88;;;12.00;54.50;;;;;;5072356;28;20028;-85
2022/03/04 19:19:22;;;;;;;17.67;11.23;;;12.00;54.70;;;;;;5072094;28;20085;-85
2022/03/04 19:21:48;;;;;;;13.88;10.13;;;11.90;55.70;;;;;;5070994;28;20503;-85
2022/03/04 19:24:13;;;;;;;19.70;10.75;;;11.90;54.90;;;;;;5072548;28;20040;-85
2022/03/04 19:26:40;;;;;;;18.38;12.23;;;11.90;55.60;;;;;;5072248;28;20035;-86
2022/03/04 19:29:06;;;;;;;17.25;12.07;;;11.80;55.40;;;;;;5053641;28;20063;-85
2022/03/04 19:31:32;;;;;;;16.05;10.98;;;11.80;55.10;;;;;;5071110;28;20392;-85
2022/03/04 19:34:01;;;;;;;18.98;11.07;;;11.70;54.70;;;;;;5072779;28;20039;-85
2022/03/04 19:36:27;;;;;;;15.05;11.23;;;11.70;55.20;;;;;;5073800;28;20548;-85
2022/03/04 19:38:56;;;;;;;18.70;11.60;;;11.70;52.10;;;;;;5074502;28;20028;-85
2022/03/04 19:41:21;;;;;;;16.65;11.93;;;11.70;52.20;;;;;;5072947;28;20119;-85
2022/03/04 19:43:47;;;;;;;20.27;12.18;;;11.70;53.00;;;;;;5055457;28;20128;-85
2022/03/04 19:46:14;;;;;;;18.13;12.25;;;11.70;53.10;;;;;;5073493;28;20067;-85
2022/03/04 19:48:40;;;;;;;19.27;12.05;;;11.70;54.50;;;;;;5073870;28;20045;-85
2022/03/04 19:51:06;;;;;;;19.92;12.25;;;11.70;53.00;;;;;;5056034;28;20124;-85
2022/03/04 19:53:32;;;;;;;18.42;12.10;;;11.70;52.20;;;;;;5073285;28;20104;-85
2022/03/04 19:55:59;;;;;;;18.23;11.85;;;11.70;52.30;;;;;;5071525;28;20063;-85
2022/03/04 19:58:25;;;;;;;20.77;12.60;;;11.70;52.60;;;;;;5071994;28;20082;-85
2022/03/04 20:00:51;;;;;;;19.83;12.38;;;11.70;50.70;;;;;;5068038;28;20043;-85
2022/03/04 20:03:17;;;;;;;20.35;13.00;;;11.70;51.10;;;;;;5069896;28;20048;-85
2022/03/04 20:05:43;;;;;;;18.65;12.85;;;11.70;51.90;;;;;;5064617;28;20041;-85
2022/03/04 20:08:09;;;;;;;19.15;12.93;;;11.70;50.90;;;;;;5070968;28;20090;-85
2022/03/04 20:10:34;;;;;;;20.05;13.15;;;11.70;51.20;;;;;;5072036;28;20089;-85
2022/03/04 20:13:00;;;;;;;16.92;12.20;;;11.60;50.80;;;;;;5070984;28;20108;-85
2022/03/04 20:15:26;;;;;;;19.55;12.23;;;11.60;50.90;;;;;;5070291;28;20040;-85
2022/03/04 20:17:53;;;;;;;22.20;16.40;;;11.60;51.20;;;;;;5071742;28;20037;-85
2022/03/04 20:20:19;;;;;;;31.25;17.55;;;11.50;52.90;;;;;;5070968;28;20350;-84
2022/03/04 20:22:45;;;;;;;28.85;17.17;;;11.40;54.50;;;;;;5071536;28;20052;-85
2022/03/04 20:25:12;;;;;;;26.25;17.25;;;11.30;55.70;;;;;;5071145;28;20041;-85
2022/03/04 20:27:40;;;;;;;27.08;16.85;;;11.30;56.30;;;;;;5070966;28;20098;-85
2022/03/04 20:30:07;;;;;;;27.55;17.73;;;11.30;57.30;;;;;;5070510;28;20037;-84
2022/03/04 20:32:33;;;;;;;28.38;17.90;;;11.30;57.90;;;;;;5062598;28;20052;-85
2022/03/04 20:34:59;;;;;;;28.27;18.52;;;11.20;58.40;;;;;;5070457;28;20067;-85
2022/03/04 20:37:25;;;;;;;28.83;19.05;;;11.20;58.40;;;;;;5070992;28;20045;-85
2022/03/04 20:39:51;;;;;;;30.27;20.00;;;11.10;59.30;;;;;;5070768;28;20043;-85
2022/03/04 20:42:17;;;;;;;30.52;19.30;;;11.10;58.80;;;;;;5070903;28;20077;-84
2022/03/04 20:44:42;;;;;;;33.13;21.23;;;11.00;59.70;;;;;;5071170;28;20111;-85
2022/03/04 20:47:09;;;;;;;38.08;23.40;;;11.00;60.00;;;;;;5052711;28;20139;-85
2022/03/04 20:49:35;;;;;;;38.75;24.58;;;11.00;59.50;;;;;;5070586;28;20039;-84
2022/03/04 20:52:01;;;;;;;35.40;22.77;;;11.00;59.70;;;;;;5070723;28;20040;-84
2022/03/04 20:54:27;;;;;;;40.90;24.60;;;11.00;59.90;;;;;;5070713;28;20040;-84
2022/03/04 20:56:52;;;;;;;33.05;22.23;;;11.00;60.40;;;;;;5070388;28;20094;-85
2022/03/04 20:59:18;;;;;;;35.38;22.58;;;10.90;60.60;;;;;;5069825;28;20043;-83
2022/03/04 21:01:44;;;;;;;37.92;21.55;;;10.90;60.60;;;;;;5047858;28;20051;-84
2022/03/04 21:04:09;;;;;;;31.33;21.08;;;10.90;60.00;;;;;;5070347;28;20067;-83
2022/03/04 21:06:35;;;;;;;34.78;21.05;;;10.90;59.70;;;;;;5070047;28;20044;-83
2022/03/04 21:09:01;;;;;;;29.88;20.25;;;11.00;59.30;;;;;;5069971;28;20037;-84
2022/03/04 21:11:26;;;;;;;31.20;21.95;;;11.00;59.60;;;;;;5069774;28;20048;-83
2022/03/04 21:13:52;;;;;;;44.35;27.27;;;10.90;58.90;;;;;;5070339;28;20044;-84
2022/03/04 21:16:19;;;;;;;36.47;22.27;;;11.00;58.40;;;;;;5068810;28;20029;-83
2022/03/04 21:18:44;;;;;;;32.42;19.85;;;11.00;57.50;;;;;;5070314;28;20107;-84
2022/03/04 21:21:11;;;;;;;29.50;20.58;;;11.00;57.60;;;;;;5069777;28;20120;-84
2022/03/04 21:23:36;;;;;;;34.45;22.38;;;10.90;58.50;;;;;;5069572;28;20120;-83